Terminal Aerodrome Forecast
Issued by NWS Green Bay, WI

Home | Current Version | Previous Version | Text Only | Print | Product List | Glossary Off
Versions: 1 2 3 4 5 6 7 8 9 10 11 12 13 14 15 16 17 18 19 20 21 22 23 24 25 26 27 28 29 30 31 32 33 34 35 36 37 38 39 40

000
FTUS43 KGRB 151100 AAA
TAFGRB
TAF AMD
KGRB 151116Z 1511/1606 18003KT 1/4SM -DZ FG VV002
     FM151500 19004KT 1/2SM FG OVC006
     FM151700 18006KT 1SM BR OVC010
     FM151800 16008KT 4SM BR OVC017
      TEMPO 1520/1524 2SM -RA BR OVC015
     FM160000 13006KT 3SM -RA BR OVC011=

USA.gov is the U.S. government's official web portal to all federal, state and local government web resources and services.